Time;durP1;ratioP1;P1;durP2;ratioP2;P2;SDS_P1;SDS_P2;PMS_P1;PMS_P2;Temp;Humidity;BMP_temperature;BMP_pressure;BME280_temperature;BME280_humidity;BME280_pressure;Samples;Min_cycle;Max_cycle;Signal;HPM_P1;HPM_P2
2022/10/05 00:00:14;;;;;;;;;;;3.20;99.90;;;;;;5096317;27;1421;-55
2022/10/05 00:02:54;;;;;;;;;;;3.20;99.90;;;;;;5131691;27;1235;-57
2022/10/05 00:05:34;;;;;;;;;;;3.10;99.90;;;;;;5110469;27;1288;-57
2022/10/05 00:08:15;;;;;;;;;;;3.10;99.90;;;;;;5110246;27;1262;-57
2022/10/05 00:10:53;;;;;;;;;;;3.00;99.90;;;;;;5110483;27;1285;-55
2022/10/05 00:13:31;;;;;;;;;;;3.00;99.90;;;;;;5091421;27;1640;-57
2022/10/05 00:16:12;;;;;;;;;;;3.00;99.90;;;;;;5105378;27;1682;-57
2022/10/05 00:18:53;;;;;;;;;;;3.10;99.90;;;;;;5093794;27;2074;-57
2022/10/05 00:21:33;;;;;;;;;;;3.10;99.90;;;;;;5094254;27;1425;-57
2022/10/05 00:24:13;;;;;;;;;;;3.00;99.90;;;;;;5107864;27;1523;-57
2022/10/05 00:26:52;;;;;;;;;;;3.00;99.90;;;;;;5110667;27;1309;-57
2022/10/05 00:29:30;;;;;;;;;;;3.00;99.90;;;;;;5101961;27;1398;-57
2022/10/05 00:32:10;;;;;;;;;;;2.90;99.90;;;;;;5111438;27;1296;-55
2022/10/05 00:34:48;;;;;;;;;;;3.00;99.90;;;;;;5072978;27;1655;-57
2022/10/05 00:37:26;;;;;;;;;;;3.00;99.90;;;;;;5096021;27;1679;-57
2022/10/05 00:40:08;;;;;;;;;;;2.90;99.90;;;;;;5109831;27;1665;-57
2022/10/05 00:42:51;;;;;;;;;;;2.90;99.90;;;;;;5104969;27;1809;-57
2022/10/05 00:45:33;;;;;;;;;;;3.00;99.90;;;;;;5109417;27;1520;-57
2022/10/05 00:48:18;;;;;;;;;;;3.00;99.90;;;;;;5069421;27;1547;-57
2022/10/05 00:51:05;;;;;;;;;;;3.10;99.90;;;;;;5106858;27;1643;-57
2022/10/05 00:53:47;;;;;;;;;;;3.10;99.90;;;;;;5110652;27;1230;-57
2022/10/05 00:56:43;;;;;;;;;;;3.10;99.90;;;;;;5110394;27;1472;-57
2022/10/05 00:59:27;;;;;;;;;;;3.10;99.90;;;;;;5109770;27;1665;-57
2022/10/05 01:02:08;;;;;;;;;;;3.10;99.90;;;;;;5110731;27;1664;-57
2022/10/05 01:04:51;;;;;;;;;;;3.10;99.90;;;;;;5120040;27;1587;-57
2022/10/05 01:07:34;;;;;;;;;;;3.00;99.90;;;;;;5096140;27;1560;-57
2022/10/05 01:10:15;;;;;;;;;;;3.00;99.90;;;;;;5094682;27;1440;-57
2022/10/05 01:12:58;;;;;;;;;;;2.80;99.90;;;;;;5075550;27;1756;-57
2022/10/05 01:15:42;;;;;;;;;;;2.80;99.90;;;;;;5102037;27;1615;-57
2022/10/05 01:18:24;;;;;;;;;;;2.80;99.90;;;;;;5108745;27;1233;-55
2022/10/05 01:21:06;;;;;;;;;;;2.70;99.90;;;;;;5108415;27;1226;-57
2022/10/05 01:24:01;;;;;;;;;;;2.70;99.90;;;;;;5110302;27;1246;-57
2022/10/05 01:26:56;;;;;;;;;;;2.60;99.90;;;;;;5109510;27;1369;-57
2022/10/05 01:29:37;;;;;;;;;;;2.60;99.90;;;;;;5080193;27;1420;-57
2022/10/05 01:32:20;;;;;;;;;;;2.60;99.90;;;;;;5110648;27;1300;-57
2022/10/05 01:35:04;;;;;;;;;;;2.70;99.90;;;;;;5086646;27;1664;-57
2022/10/05 01:37:50;;;;;;;;;;;2.70;99.90;;;;;;5103394;27;1654;-57
2022/10/05 01:40:34;;;;;;;;;;;2.70;99.90;;;;;;5091416;27;1384;-57
2022/10/05 01:43:19;;;;;;;;;;;2.70;99.90;;;;;;5103323;27;1826;-57
2022/10/05 01:46:00;;;;;;;;;;;2.70;99.90;;;;;;5106395;27;1696;-55
2022/10/05 01:48:44;;;;;;;;;;;2.70;99.90;;;;;;5105864;27;1645;-57
2022/10/05 01:51:27;;;;;;;;;;;2.60;99.90;;;;;;5105801;27;1672;-57
2022/10/05 01:54:12;;;;;;;;;;;2.80;99.90;;;;;;5101991;27;1921;-57
2022/10/05 01:56:55;;;;;;;;;;;2.80;99.90;;;;;;5090037;27;1335;-57
2022/10/05 01:59:41;;;;;;;;;;;2.90;99.90;;;;;;5086213;27;1296;-57
2022/10/05 02:02:22;;;;;;;;;;;3.00;99.90;;;;;;5091107;27;2155;-57
2022/10/05 02:05:04;;;;;;;;;;;2.90;99.90;;;;;;5100267;27;1296;-57
2022/10/05 02:07:45;;;;;;;;;;;2.80;99.90;;;;;;5109556;27;1570;-57
2022/10/05 02:10:25;;;;;;;;;;;2.70;99.90;;;;;;5085018;27;2243;-57
2022/10/05 02:13:09;;;;;;;;;;;2.60;99.90;;;;;;5094293;27;1778;-57
2022/10/05 02:15:53;;;;;;;;;;;2.50;99.90;;;;;;5106850;27;1699;-57
2022/10/05 02:18:35;;;;;;;;;;;2.50;99.90;;;;;;5106719;27;1719;-57
2022/10/05 02:21:15;;;;;;;;;;;2.40;99.90;;;;;;5107123;27;1677;-57
2022/10/05 02:23:56;;;;;;;;;;;2.40;99.90;;;;;;5109658;27;1216;-57
2022/10/05 02:26:36;;;;;;;;;;;2.40;99.90;;;;;;5108221;27;1397;-57
2022/10/05 02:29:17;;;;;;;;;;;2.40;99.90;;;;;;5103155;27;1493;-57
2022/10/05 02:31:58;;;;;;;;;;;2.30;99.90;;;;;;5110747;27;1596;-57
2022/10/05 02:34:38;;;;;;;;;;;2.30;99.90;;;;;;5089342;27;1486;-57
2022/10/05 02:37:34;;;;;;;;;;;2.20;99.90;;;;;;5110155;27;1305;-57
2022/10/05 02:40:19;;;;;;;;;;;2.20;99.90;;;;;;5095619;27;1315;-57
2022/10/05 02:43:00;;;;;;;;;;;2.20;99.90;;;;;;5110623;27;1312;-57
2022/10/05 02:45:44;;;;;;;;;;;2.20;99.90;;;;;;5109901;27;1402;-57
2022/10/05 02:48:26;;;;;;;;;;;2.30;99.90;;;;;;5070220;27;1305;-57
2022/10/05 02:51:10;;;;;;;;;;;2.30;99.90;;;;;;5090282;27;1173;-57
2022/10/05 02:53:57;;;;;;;;;;;2.30;99.90;;;;;;5110983;27;1221;-55
2022/10/05 02:56:40;;;;;;;;;;;2.30;99.90;;;;;;5090049;27;1309;-57
2022/10/05 02:59:23;;;;;;;;;;;2.40;99.90;;;;;;5110132;27;1504;-57
2022/10/05 03:02:06;;;;;;;;;;;2.40;99.90;;;;;;5090422;27;1597;-57
2022/10/05 03:04:48;;;;;;;;;;;2.40;99.90;;;;;;5111418;27;1355;-57
2022/10/05 03:07:30;;;;;;;;;;;2.30;99.90;;;;;;5110468;27;1392;-57
2022/10/05 03:10:13;;;;;;;;;;;2.30;99.90;;;;;;5096663;27;1572;-57
2022/10/05 03:12:54;;;;;;;;;;;2.20;99.90;;;;;;5110496;27;1615;-58
2022/10/05 03:15:53;;;;;;;;;;;2.20;99.90;;;;;;5085923;27;1580;-57
2022/10/05 03:18:39;;;;;;;;;;;2.10;99.90;;;;;;5075494;27;1317;-57
2022/10/05 03:21:23;;;;;;;;;;;2.10;99.90;;;;;;5108857;27;1656;-57
2022/10/05 03:24:09;;;;;;;;;;;2.10;99.90;;;;;;5109463;27;1298;-57
2022/10/05 03:26:53;;;;;;;;;;;2.10;99.90;;;;;;5110269;27;1284;-57
2022/10/05 03:29:37;;;;;;;;;;;2.00;99.90;;;;;;5101523;27;1388;-57
2022/10/05 03:32:22;;;;;;;;;;;2.00;99.90;;;;;;5106350;27;1800;-57
2022/10/05 03:35:04;;;;;;;;;;;1.90;99.90;;;;;;5091252;27;1304;-58
2022/10/05 03:37:48;;;;;;;;;;;2.00;99.90;;;;;;5108721;27;1358;-58
2022/10/05 03:40:31;;;;;;;;;;;1.90;99.90;;;;;;5093232;27;1399;-57
2022/10/05 03:43:17;;;;;;;;;;;1.90;99.90;;;;;;5110352;27;1241;-58
2022/10/05 03:46:02;;;;;;;;;;;1.90;99.90;;;;;;5110590;27;1241;-58
2022/10/05 03:48:46;;;;;;;;;;;1.80;99.90;;;;;;5110293;27;1385;-57
2022/10/05 03:51:26;;;;;;;;;;;1.80;99.90;;;;;;5111454;27;1378;-57
2022/10/05 03:54:09;;;;;;;;;;;1.70;99.90;;;;;;5073423;27;1308;-57
2022/10/05 03:56:51;;;;;;;;;;;1.70;99.90;;;;;;5110265;27;1587;-57
2022/10/05 03:59:32;;;;;;;;;;;1.70;99.90;;;;;;5068250;27;1632;-57
2022/10/05 04:02:18;;;;;;;;;;;1.70;99.90;;;;;;5071176;27;1409;-57
2022/10/05 04:05:00;;;;;;;;;;;1.70;99.90;;;;;;5109451;27;1359;-58
2022/10/05 04:07:42;;;;;;;;;;;1.70;99.90;;;;;;5110017;27;1494;-57
2022/10/05 04:10:25;;;;;;;;;;;1.70;99.90;;;;;;5103933;27;1671;-57
2022/10/05 04:13:06;;;;;;;;;;;1.70;99.90;;;;;;5108168;27;1655;-57
2022/10/05 04:15:47;;;;;;;;;;;1.70;99.90;;;;;;5108344;27;1747;-58
2022/10/05 04:18:29;;;;;;;;;;;1.80;99.90;;;;;;5084297;27;1498;-57
2022/10/05 04:21:11;;;;;;;;;;;1.90;99.90;;;;;;5087546;27;2236;-57
2022/10/05 04:23:53;;;;;;;;;;;2.00;99.90;;;;;;5101155;27;2110;-56
2022/10/05 04:26:35;;;;;;;;;;;2.10;99.90;;;;;;5107960;27;1397;-58
2022/10/05 04:29:16;;;;;;;;;;;2.20;99.90;;;;;;5081350;27;1379;-58
2022/10/05 04:32:03;;;;;;;;;;;2.20;99.90;;;;;;5109949;27;1200;-57
2022/10/05 04:34:48;;;;;;;;;;;2.10;99.90;;;;;;5107981;27;1456;-57
2022/10/05 04:37:31;;;;;;;;;;;2.10;99.90;;;;;;5087105;27;1859;-57
2022/10/05 04:40:16;;;;;;;;;;;2.00;99.90;;;;;;5072215;27;1635;-58
2022/10/05 04:43:02;;;;;;;;;;;1.90;99.90;;;;;;5089520;27;1301;-57
2022/10/05 04:45:51;;;;;;;;;;;1.80;99.90;;;;;;5108974;27;1301;-57
2022/10/05 04:48:43;;;;;;;;;;;1.80;99.90;;;;;;5110250;27;1556;-55
2022/10/05 04:51:30;;;;;;;;;;;1.80;99.90;;;;;;5111022;27;1300;-57
2022/10/05 04:54:15;;;;;;;;;;;1.80;99.90;;;;;;5113645;27;1279;-57
2022/10/05 04:56:55;;;;;;;;;;;1.80;99.90;;;;;;5067354;27;1668;-57
2022/10/05 04:59:43;;;;;;;;;;;1.80;99.90;;;;;;5068555;27;1436;-57
2022/10/05 05:02:25;;;;;;;;;;;1.80;99.90;;;;;;5109923;27;1332;-58
2022/10/05 05:05:23;;;;;;;;;;;2.00;99.90;;;;;;5109998;27;1629;-57
2022/10/05 05:08:12;;;;;;;;;;;2.00;99.90;;;;;;5110269;27;1304;-57
2022/10/05 05:11:00;;;;;;;;;;;2.20;99.90;;;;;;5110197;27;1547;-58
2022/10/05 05:13:50;;;;;;;;;;;2.30;99.90;;;;;;5098568;27;1789;-58
2022/10/05 05:16:32;;;;;;;;;;;2.30;99.90;;;;;;5066666;27;1704;-57
2022/10/05 05:19:15;;;;;;;;;;;2.30;99.90;;;;;;5059917;27;1704;-57
2022/10/05 05:21:58;;;;;;;;;;;2.20;99.90;;;;;;5109753;27;1293;-58
2022/10/05 05:24:45;;;;;;;;;;;2.20;99.90;;;;;;5097553;27;1896;-55
2022/10/05 05:27:38;;;;;;;;;;;2.10;99.90;;;;;;5103043;27;1632;-57
2022/10/05 05:30:21;;;;;;;;;;;2.10;99.90;;;;;;5110091;27;1627;-57
2022/10/05 05:33:08;;;;;;;;;;;2.10;99.90;;;;;;5109813;27;1304;-56
2022/10/05 05:36:10;;;;;;;;;;;2.30;99.90;;;;;;5098188;27;1676;-55
2022/10/05 05:38:58;;;;;;;;;;;2.40;99.90;;;;;;5095312;27;2132;-55
2022/10/05 05:41:39;;;;;;;;;;;2.50;99.90;;;;;;5087103;27;1228;-57
2022/10/05 05:44:21;;;;;;;;;;;2.60;99.90;;;;;;5080644;27;1767;-57
2022/10/05 05:47:02;;;;;;;;;;;2.60;99.90;;;;;;5087196;27;1840;-57
2022/10/05 05:49:51;;;;;;;;;;;2.80;99.90;;;;;;5051030;27;1650;-57
2022/10/05 05:52:31;;;;;;;;;;;3.00;99.90;;;;;;5108311;27;1686;-57
2022/10/05 05:55:17;;;;;;;;;;;3.10;99.90;;;;;;5089498;27;1596;-57
2022/10/05 05:57:57;;;;;;;;;;;3.30;99.90;;;;;;5103966;27;1997;-57
2022/10/05 06:00:37;;;;;;;;;;;3.40;99.90;;;;;;5099680;27;1611;-57
2022/10/05 06:03:21;;;;;;;;;;;3.50;99.90;;;;;;5108875;27;1342;-57
2022/10/05 06:06:01;;;;;;;;;;;3.60;99.90;;;;;;5085023;27;2177;-57
2022/10/05 06:08:41;;;;;;;;;;;3.60;99.90;;;;;;5102033;27;1601;-57
2022/10/05 06:11:41;;;;;;;;;;;3.60;99.90;;;;;;5088589;27;1643;-58
2022/10/05 06:14:24;;;;;;;;;;;3.80;99.90;;;;;;5097736;27;2360;-58
2022/10/05 06:17:06;;;;;;;;;;;3.80;99.90;;;;;;5110406;27;1647;-58
2022/10/05 06:19:46;;;;;;;;;;;3.90;99.90;;;;;;5077624;27;1730;-57
2022/10/05 06:22:28;;;;;;;;;;;4.00;99.90;;;;;;5110320;27;1289;-57
2022/10/05 06:25:14;;;;;;;;;;;4.20;99.90;;;;;;5104405;27;1631;-57
2022/10/05 06:28:08;;;;;;;;;;;4.40;99.90;;;;;;5069436;27;1611;-57
2022/10/05 06:30:52;;;;;;;;;;;4.50;99.90;;;;;;5069224;27;1301;-57
2022/10/05 06:33:39;;;;;;;;;;;4.80;99.90;;;;;;5109058;27;1729;-57
2022/10/05 06:36:32;;;;;;;;;;;5.00;99.90;;;;;;5105693;27;1939;-55
2022/10/05 06:39:22;;;;;;;;;;;5.30;99.90;;;;;;5096235;27;1522;-58
2022/10/05 06:42:12;;;;;;;;;;;5.60;99.90;;;;;;5109276;27;1549;-57
2022/10/05 06:45:30;;;;;;;;;;;5.80;99.90;;;;;;5110355;27;1442;-56
2022/10/05 06:48:53;;;;;;;;;;;6.10;99.90;;;;;;5091876;27;2060;-56
2022/10/05 06:51:58;;;;;;;;;;;6.40;99.90;;;;;;5106314;27;1595;-57
2022/10/05 06:54:48;;;;;;;;;;;6.60;99.90;;;;;;5108148;27;1644;-56
2022/10/05 06:57:41;;;;;;;;;;;6.80;99.90;;;;;;5099150;27;2203;-57
2022/10/05 07:00:23;;;;;;;;;;;7.00;99.90;;;;;;5100747;27;2331;-56
2022/10/05 07:03:09;;;;;;;;;;;7.20;99.90;;;;;;5130780;27;1635;-55
2022/10/05 07:06:02;;;;;;;;;;;7.40;99.90;;;;;;5088262;27;1485;-56
2022/10/05 07:08:59;;;;;;;;;;;7.60;99.90;;;;;;5093126;27;1625;-56
2022/10/05 07:11:47;;;;;;;;;;;7.90;99.90;;;;;;5101146;27;2082;-56
2022/10/05 07:14:35;;;;;;;;;;;8.10;99.90;;;;;;5116009;27;1454;-54
2022/10/05 07:17:30;;;;;;;;;;;8.30;99.90;;;;;;5108986;27;1403;-56
2022/10/05 07:20:15;;;;;;;;;;;8.40;99.90;;;;;;5108625;27;1377;-56
2022/10/05 07:23:02;;;;;;;;;;;8.50;99.90;;;;;;5109381;27;1222;-56
2022/10/05 07:25:44;;;;;;;;;;;8.50;99.90;;;;;;5082103;27;1668;-56
2022/10/05 07:28:27;;;;;;;;;;;8.60;99.90;;;;;;5083342;27;1607;-56
2022/10/05 07:31:09;;;;;;;;;;;8.70;99.90;;;;;;5096228;27;1634;-56
2022/10/05 07:33:50;;;;;;;;;;;9.00;99.90;;;;;;5097059;27;1702;-56
2022/10/05 07:39:31;;;;;;;;;;;9.20;99.90;;;;;;5101198;27;1373;-56
2022/10/05 07:42:17;;;;;;;;;;;9.30;99.90;;;;;;5109032;27;1293;-56
2022/10/05 07:45:02;;;;;;;;;;;9.30;99.90;;;;;;5089749;27;1297;-56
2022/10/05 07:47:44;;;;;;;;;;;9.30;99.90;;;;;;5090084;27;1209;-55
2022/10/05 07:50:24;;;;;;;;;;;9.40;99.90;;;;;;5086659;27;1638;-56
2022/10/05 07:53:06;;;;;;;;;;;9.40;99.90;;;;;;5104383;27;1170;-56
2022/10/05 07:55:49;;;;;;;;;;;9.60;99.90;;;;;;5109108;27;1837;-56
2022/10/05 07:58:31;;;;;;;;;;;9.70;99.90;;;;;;5101649;27;1643;-56
2022/10/05 08:01:13;;;;;;;;;;;9.80;99.90;;;;;;5109699;27;1563;-56
2022/10/05 08:03:56;;;;;;;;;;;9.90;99.90;;;;;;5078307;27;2240;-56
2022/10/05 08:06:41;;;;;;;;;;;9.90;99.90;;;;;;5079340;27;1404;-56
2022/10/05 08:09:27;;;;;;;;;;;9.90;99.90;;;;;;5076237;27;2285;-56
2022/10/05 08:12:11;;;;;;;;;;;10.10;99.90;;;;;;5097132;27;1846;-56
2022/10/05 08:14:52;;;;;;;;;;;10.20;99.90;;;;;;5105611;27;1714;-56
2022/10/05 08:17:41;;;;;;;;;;;10.30;99.90;;;;;;5093668;27;1739;-56
2022/10/05 08:20:33;;;;;;;;;;;10.50;99.90;;;;;;5068166;27;1906;-56
2022/10/05 08:23:17;;;;;;;;;;;10.60;99.90;;;;;;5098793;27;1690;-56
2022/10/05 08:26:03;;;;;;;;;;;10.80;99.90;;;;;;5087823;27;1253;-55
2022/10/05 08:28:49;;;;;;;;;;;11.00;99.90;;;;;;5108143;27;1690;-56
2022/10/05 08:31:32;;;;;;;;;;;11.10;99.90;;;;;;5097527;27;2296;-56
2022/10/05 08:34:19;;;;;;;;;;;11.20;99.90;;;;;;5083492;27;1745;-55
2022/10/05 08:37:02;;;;;;;;;;;11.40;99.90;;;;;;5091209;27;1673;-56
2022/10/05 08:39:48;;;;;;;;;;;11.60;99.90;;;;;;5075776;27;2049;-56
2022/10/05 08:42:39;;;;;;;;;;;11.70;99.90;;;;;;5094795;27;1766;-56
2022/10/05 08:45:30;;;;;;;;;;;11.80;99.90;;;;;;5078400;27;2061;-56
2022/10/05 08:48:35;;;;;;;;;;;11.80;99.90;;;;;;5082489;27;1817;-56
2022/10/05 08:51:28;;;;;;;;;;;12.00;99.90;;;;;;5083743;27;1589;-54
2022/10/05 08:54:33;;;;;;;;;;;12.20;99.90;;;;;;5073986;27;2051;-56
2022/10/05 08:57:26;;;;;;;;;;;12.50;99.90;;;;;;5083995;27;1915;-56
2022/10/05 09:00:13;;;;;;;;;;;12.80;99.90;;;;;;5052848;27;1760;-56
2022/10/05 09:03:03;;;;;;;;;;;13.00;99.90;;;;;;5077460;27;1666;-56
2022/10/05 09:05:57;;;;;;;;;;;13.10;99.90;;;;;;5050581;27;2202;-56
2022/10/05 09:08:42;;;;;;;;;;;13.30;99.90;;;;;;5089326;27;2132;-56
2022/10/05 09:11:24;;;;;;;;;;;13.50;99.90;;;;;;5063110;27;1749;-55
2022/10/05 09:14:20;;;;;;;;;;;13.70;99.90;;;;;;5106667;27;1381;-55
2022/10/05 09:17:04;;;;;;;;;;;13.80;99.90;;;;;;5105910;27;2142;-56
2022/10/05 09:19:51;;;;;;;;;;;14.00;99.90;;;;;;5089140;27;1397;-56
2022/10/05 09:22:38;;;;;;;;;;;14.10;99.90;;;;;;5089000;27;1780;-56
2022/10/05 09:25:22;;;;;;;;;;;14.20;99.90;;;;;;5087069;27;1672;-56
2022/10/05 09:28:12;;;;;;;;;;;14.40;99.90;;;;;;5084239;27;2235;-56
2022/10/05 09:30:56;;;;;;;;;;;14.60;99.90;;;;;;5088370;27;1780;-56
2022/10/05 09:33:58;;;;;;;;;;;14.70;99.90;;;;;;5098897;27;1542;-56
2022/10/05 09:36:53;;;;;;;;;;;14.70;99.90;;;;;;5102515;27;1650;-57
2022/10/05 09:39:50;;;;;;;;;;;14.60;99.90;;;;;;5093173;27;1719;-56
2022/10/05 09:42:46;;;;;;;;;;;14.70;99.90;;;;;;5103670;27;1647;-55
2022/10/05 09:45:41;;;;;;;;;;;14.70;99.90;;;;;;5077801;27;2408;-56
2022/10/05 09:48:37;;;;;;;;;;;14.80;99.90;;;;;;5103318;27;2012;-56
2022/10/05 09:51:26;;;;;;;;;;;14.90;99.90;;;;;;5079577;27;2101;-56
2022/10/05 09:54:27;;;;;;;;;;;14.90;99.90;;;;;;5103901;27;1649;-56
2022/10/05 09:57:16;;;;;;;;;;;15.00;99.90;;;;;;5065444;27;1609;-56
2022/10/05 10:00:08;;;;;;;;;;;15.10;99.90;;;;;;5073585;27;2030;-56
2022/10/05 10:03:07;;;;;;;;;;;15.10;99.90;;;;;;5085764;27;2093;-56
2022/10/05 10:06:00;;;;;;;;;;;15.10;99.90;;;;;;5065178;27;2447;-56
2022/10/05 10:08:42;;;;;;;;;;;15.20;99.90;;;;;;5103556;27;1632;-54
2022/10/05 10:11:54;;;;;;;;;;;15.20;99.90;;;;;;5106798;27;1467;-56
2022/10/05 10:14:47;;;;;;;;;;;15.30;99.90;;;;;;5056158;27;1520;-56
2022/10/05 10:17:32;;;;;;;;;;;15.50;99.90;;;;;;5089033;27;1721;-56
2022/10/05 10:20:18;;;;;;;;;;;15.70;99.90;;;;;;5094445;27;1315;-56
2022/10/05 10:23:16;;;;;;;;;;;15.80;99.90;;;;;;5106651;27;1650;-56
2022/10/05 10:26:07;;;;;;;;;;;16.00;99.90;;;;;;5097630;27;1657;-56
2022/10/05 10:29:07;;;;;;;;;;;16.00;99.90;;;;;;5083174;27;2203;-56
2022/10/05 10:31:50;;;;;;;;;;;15.90;99.90;;;;;;5064320;27;1871;-56
2022/10/05 10:34:36;;;;;;;;;;;16.00;99.90;;;;;;5107381;27;1350;-56
2022/10/05 10:37:46;;;;;;;;;;;16.20;99.90;;;;;;5102952;27;1720;-56
2022/10/05 10:40:36;;;;;;;;;;;16.40;99.90;;;;;;5087273;27;1650;-56
2022/10/05 10:43:34;;;;;;;;;;;16.60;99.90;;;;;;5104363;27;1527;-56
2022/10/05 10:46:18;;;;;;;;;;;16.80;99.90;;;;;;5103499;27;1621;-56
2022/10/05 10:49:01;;;;;;;;;;;17.00;99.90;;;;;;5086319;27;1890;-56
2022/10/05 10:51:52;;;;;;;;;;;17.30;99.90;;;;;;5103188;27;1724;-56
2022/10/05 10:54:44;;;;;;;;;;;17.30;99.90;;;;;;5071165;27;1737;-56
2022/10/05 10:57:25;;;;;;;;;;;17.50;99.90;;;;;;5102257;27;1583;-56
2022/10/05 11:00:22;;;;;;;;;;;17.70;99.90;;;;;;5103021;27;1493;-56
2022/10/05 11:03:17;;;;;;;;;;;17.80;99.90;;;;;;5083283;27;1877;-56
2022/10/05 11:06:12;;;;;;;;;;;17.90;99.90;;;;;;5094067;27;2027;-56
2022/10/05 11:08:57;;;;;;;;;;;18.00;99.90;;;;;;5114708;27;1803;-56
2022/10/05 11:11:46;;;;;;;;;;;18.10;99.90;;;;;;5106665;27;1406;-56
2022/10/05 11:14:35;;;;;;;;;;;18.00;99.90;;;;;;5110265;27;1533;-56
2022/10/05 11:17:21;;;;;;;;;;;17.90;99.90;;;;;;5105160;27;1619;-56
2022/10/05 11:20:14;;;;;;;;;;;17.90;99.90;;;;;;5107185;27;1805;-56
2022/10/05 11:22:58;;;;;;;;;;;17.90;99.90;;;;;;5109489;27;1301;-56
2022/10/05 11:25:43;;;;;;;;;;;17.90;99.90;;;;;;5110272;27;1297;-57
2022/10/05 11:28:34;;;;;;;;;;;18.10;99.90;;;;;;5110882;27;1370;-56
2022/10/05 11:31:25;;;;;;;;;;;18.10;99.90;;;;;;5110656;27;1385;-56
2022/10/05 11:34:15;;;;;;;;;;;18.20;99.90;;;;;;5110382;27;1359;-57
2022/10/05 11:37:10;;;;;;;;;;;18.40;99.90;;;;;;5097352;27;1496;-56
2022/10/05 11:40:06;;;;;;;;;;;18.60;99.90;;;;;;5110036;27;1719;-56
2022/10/05 11:43:00;;;;;;;;;;;18.60;99.90;;;;;;5110912;27;1453;-56
2022/10/05 11:45:48;;;;;;;;;;;18.40;99.90;;;;;;5108415;27;1292;-56
2022/10/05 11:48:50;;;;;;;;;;;18.40;99.90;;;;;;5112878;27;2156;-56
2022/10/05 11:51:40;;;;;;;;;;;18.40;99.90;;;;;;5102666;27;1346;-56
2022/10/05 11:54:26;;;;;;;;;;;18.40;99.90;;;;;;5110734;27;1705;-56
2022/10/05 11:57:16;;;;;;;;;;;18.30;99.90;;;;;;5090379;27;1748;-57
2022/10/05 11:59:57;;;;;;;;;;;18.30;99.90;;;;;;5096528;27;1721;-56
2022/10/05 12:02:46;;;;;;;;;;;18.40;99.90;;;;;;5110293;27;1301;-55
2022/10/05 12:05:31;;;;;;;;;;;18.30;99.90;;;;;;5095051;27;1530;-55
2022/10/05 12:08:19;;;;;;;;;;;18.20;99.90;;;;;;5090721;27;1494;-57
2022/10/05 12:11:02;;;;;;;;;;;18.30;99.90;;;;;;5111037;27;1379;-57
2022/10/05 12:13:45;;;;;;;;;;;18.40;99.90;;;;;;5109791;27;1726;-57
2022/10/05 12:16:26;;;;;;;;;;;18.50;99.90;;;;;;5098511;27;2212;-57
2022/10/05 12:19:09;;;;;;;;;;;18.40;99.90;;;;;;5087268;27;1454;-57
2022/10/05 12:21:51;;;;;;;;;;;18.40;99.90;;;;;;5110993;27;2001;-57
2022/10/05 12:24:42;;;;;;;;;;;18.40;99.90;;;;;;5111841;27;1296;-57
2022/10/05 12:27:25;;;;;;;;;;;18.30;99.90;;;;;;5111979;27;1305;-57
2022/10/05 12:30:06;;;;;;;;;;;18.40;99.90;;;;;;5099038;27;1567;-57
2022/10/05 12:32:49;;;;;;;;;;;18.50;99.90;;;;;;5103628;27;1229;-57
2022/10/05 12:35:31;;;;;;;;;;;18.50;99.90;;;;;;5108918;27;1542;-57
2022/10/05 12:38:15;;;;;;;;;;;18.60;99.90;;;;;;5096134;27;1301;-57
2022/10/05 12:40:57;;;;;;;;;;;18.60;99.90;;;;;;5110277;27;1323;-57
2022/10/05 12:43:41;;;;;;;;;;;18.70;99.90;;;;;;5111633;27;1221;-57
2022/10/05 12:46:24;;;;;;;;;;;18.70;99.90;;;;;;5107734;27;1676;-57
2022/10/05 12:49:18;;;;;;;;;;;18.80;99.90;;;;;;5110361;27;1370;-58
2022/10/05 12:51:58;;;;;;;;;;;18.80;99.90;;;;;;5111005;27;1394;-57
2022/10/05 12:54:42;;;;;;;;;;;18.80;99.90;;;;;;5109467;27;1717;-57
2022/10/05 12:57:25;;;;;;;;;;;18.80;99.90;;;;;;5098662;27;2112;-57
2022/10/05 13:00:05;;;;;;;;;;;18.90;99.90;;;;;;5083979;27;1988;-57
2022/10/05 13:02:45;;;;;;;;;;;18.90;99.90;;;;;;5088465;27;1613;-57
2022/10/05 13:05:31;;;;;;;;;;;18.90;99.90;;;;;;5103494;27;1492;-57
2022/10/05 13:08:16;;;;;;;;;;;19.00;99.90;;;;;;5108478;27;2122;-56
2022/10/05 13:10:57;;;;;;;;;;;19.00;99.90;;;;;;5112352;27;1694;-57
2022/10/05 13:13:42;;;;;;;;;;;19.00;99.90;;;;;;5071773;27;1774;-57
2022/10/05 13:16:28;;;;;;;;;;;19.00;99.90;;;;;;5081692;27;2028;-58
2022/10/05 13:19:13;;;;;;;;;;;19.00;99.90;;;;;;5110925;27;2614;-57
2022/10/05 13:22:00;;;;;;;;;;;19.00;99.90;;;;;;5107822;27;1650;-57
2022/10/05 13:24:42;;;;;;;;;;;19.10;99.90;;;;;;5111392;27;1414;-57
2022/10/05 13:27:23;;;;;;;;;;;19.00;99.90;;;;;;5087049;27;1713;-57
2022/10/05 13:30:05;;;;;;;;;;;19.00;99.90;;;;;;5075570;27;1913;-57
2022/10/05 13:32:46;;;;;;;;;;;19.00;99.90;;;;;;5110277;27;2242;-57
2022/10/05 13:35:41;;;;;;;;;;;19.00;99.90;;;;;;5107377;27;1666;-57
2022/10/05 13:38:25;;;;;;;;;;;18.90;99.90;;;;;;5109771;27;1385;-57
2022/10/05 13:41:10;;;;;;;;;;;18.90;99.90;;;;;;5109628;27;1179;-57
2022/10/05 13:43:55;;;;;;;;;;;18.80;99.90;;;;;;5110944;27;1325;-57
2022/10/05 13:46:38;;;;;;;;;;;18.80;99.90;;;;;;5107302;27;3167;-57
2022/10/05 13:49:20;;;;;;;;;;;18.80;99.90;;;;;;5101132;27;1697;-57
2022/10/05 13:52:02;;;;;;;;;;;18.70;99.90;;;;;;5109781;27;1327;-57
2022/10/05 13:54:44;;;;;;;;;;;18.70;99.90;;;;;;5089269;27;1301;-57
2022/10/05 13:57:28;;;;;;;;;;;18.70;99.90;;;;;;5103668;27;1733;-57
2022/10/05 14:00:13;;;;;;;;;;;18.70;99.90;;;;;;5094235;27;1817;-57
2022/10/05 14:02:52;;;;;;;;;;;18.60;99.90;;;;;;5071215;27;1478;-57
2022/10/05 14:05:31;;;;;;;;;;;18.70;99.90;;;;;;5111002;27;1810;-57
2022/10/05 14:08:16;;;;;;;;;;;18.70;99.90;;;;;;5109652;27;1834;-57
2022/10/05 14:10:55;;;;;;;;;;;18.60;99.90;;;;;;5072131;27;1633;-58
2022/10/05 14:13:44;;;;;;;;;;;18.50;99.90;;;;;;5094432;27;1386;-57
2022/10/05 14:16:25;;;;;;;;;;;18.60;99.90;;;;;;5092261;27;1842;-57
2022/10/05 14:19:15;;;;;;;;;;;18.40;99.90;;;;;;5111436;27;1317;-58
2022/10/05 14:21:59;;;;;;;;;;;18.30;99.90;;;;;;5109285;27;1669;-57
2022/10/05 14:24:38;;;;;;;;;;;18.30;99.90;;;;;;5102823;27;2052;-57
2022/10/05 14:27:24;;;;;;;;;;;18.20;99.90;;;;;;5109875;27;1597;-57
2022/10/05 14:30:18;;;;;;;;;;;18.20;99.90;;;;;;5076910;27;1662;-57
2022/10/05 14:33:06;;;;;;;;;;;18.20;99.90;;;;;;5111709;27;1465;-57
2022/10/05 14:35:48;;;;;;;;;;;18.30;99.90;;;;;;5087445;27;1725;-57
2022/10/05 14:38:28;;;;;;;;;;;18.30;99.90;;;;;;5089117;27;1285;-57
2022/10/05 14:41:15;;;;;;;;;;;18.30;99.90;;;;;;5090916;27;1550;-58
2022/10/05 14:43:58;;;;;;;;;;;18.30;99.90;;;;;;5112076;27;1393;-57
2022/10/05 14:46:38;;;;;;;;;;;18.20;99.90;;;;;;5079625;27;1914;-57
2022/10/05 14:49:20;;;;;;;;;;;18.20;99.90;;;;;;5084730;27;1570;-57
2022/10/05 14:52:00;;;;;;;;;;;18.20;99.90;;;;;;5106303;27;1904;-57
2022/10/05 14:54:45;;;;;;;;;;;18.20;99.90;;;;;;5110849;27;1492;-56
2022/10/05 14:57:29;;;;;;;;;;;18.10;99.90;;;;;;5104993;27;1476;-56
2022/10/05 15:00:11;;;;;;;;;;;18.10;99.90;;;;;;5097389;27;1366;-56
2022/10/05 15:03:07;;;;;;;;;;;18.00;99.90;;;;;;5092889;27;1853;-56
2022/10/05 15:05:48;;;;;;;;;;;18.00;99.90;;;;;;5110241;27;1476;-56
2022/10/05 15:08:40;;;;;;;;;;;17.90;99.90;;;;;;5108053;27;1587;-56
2022/10/05 15:11:23;;;;;;;;;;;17.70;99.90;;;;;;5109820;27;1301;-56
2022/10/05 15:14:04;;;;;;;;;;;17.60;99.90;;;;;;5107815;27;1581;-56
2022/10/05 15:16:44;;;;;;;;;;;17.40;99.90;;;;;;5107446;27;1615;-56
2022/10/05 15:19:27;;;;;;;;;;;17.20;99.90;;;;;;5102339;27;1403;-56
2022/10/05 15:22:13;;;;;;;;;;;17.10;99.90;;;;;;5105917;27;2265;-56
2022/10/05 15:24:57;;;;;;;;;;;16.90;99.90;;;;;;5088479;27;1646;-57
2022/10/05 15:27:42;;;;;;;;;;;16.80;99.90;;;;;;5107671;27;1583;-56
2022/10/05 15:30:22;;;;;;;;;;;16.60;99.90;;;;;;5085346;27;1718;-56
2022/10/05 15:33:14;;;;;;;;;;;16.50;99.90;;;;;;5079324;27;1679;-56
2022/10/05 15:36:03;;;;;;;;;;;16.30;99.90;;;;;;5100455;27;1819;-56
2022/10/05 15:38:48;;;;;;;;;;;16.10;99.90;;;;;;5066180;27;1864;-56
2022/10/05 15:41:28;;;;;;;;;;;15.90;99.90;;;;;;5112202;27;1548;-56
2022/10/05 15:44:15;;;;;;;;;;;15.80;99.90;;;;;;5106071;27;1897;-57
2022/10/05 15:46:57;;;;;;;;;;;15.60;99.90;;;;;;5070981;27;1296;-56
2022/10/05 15:49:39;;;;;;;;;;;15.40;99.90;;;;;;5104833;27;2187;-56
2022/10/05 15:52:23;;;;;;;;;;;15.20;99.90;;;;;;5087551;27;1963;-56
2022/10/05 15:55:15;;;;;;;;;;;15.10;99.90;;;;;;5107816;27;1781;-56
2022/10/05 15:57:58;;;;;;;;;;;14.90;99.90;;;;;;5090042;27;1406;-56
2022/10/05 16:00:41;;;;;;;;;;;14.80;99.90;;;;;;5110922;27;1439;-56
2022/10/05 16:03:23;;;;;;;;;;;14.60;99.90;;;;;;5111680;27;1511;-56
2022/10/05 16:09:07;;;;;;;;;;;14.30;99.90;;;;;;5107738;27;1300;-57
2022/10/05 16:11:58;;;;;;;;;;;14.20;99.90;;;;;;5111780;27;1293;-55
2022/10/05 16:14:44;;;;;;;;;;;14.00;99.90;;;;;;5065593;27;1682;-56
2022/10/05 16:17:32;;;;;;;;;;;13.80;99.90;;;;;;5112738;27;1353;-56
2022/10/05 16:20:21;;;;;;;;;;;13.70;99.90;;;;;;5077944;27;1681;-56
2022/10/05 16:23:02;;;;;;;;;;;13.50;99.90;;;;;;5091258;27;1329;-56
2022/10/05 16:25:47;;;;;;;;;;;13.40;99.90;;;;;;5111811;27;1462;-56
2022/10/05 16:28:31;;;;;;;;;;;13.20;99.90;;;;;;5090557;27;1533;-56
2022/10/05 16:31:16;;;;;;;;;;;13.00;99.90;;;;;;5093035;27;1177;-56